Terminal Aerodrome Forecast
Issued by NWS Duluth, MN

Home | Current Version | Previous Version | Text Only | Print | Product List | Glossary On
Versions: 1 2 3 4 5 6 7 8 9 10 11 12 13 14 15 16 17 18 19 20 21 22 23 24 25 26 27 28 29 30
000
FTUS43 KDLH 260500
TAFINL
TAF
KINL 260539Z 2606/2706 18007G14KT 5SM -SN BKN020 OVC045
     FM260700 19008G15KT 1SM -SN OVC015
      TEMPO 2607/2610 3/4SM -SN VV005
     FM261100 18006KT 2SM -SN BR OVC009
     FM261500 25006KT 5SM -FZDZSN BR OVC008
     FM261900 30008KT P6SM OVC015=

USA.gov is the U.S. government's official web portal to all federal, state and local government web resources and services.